Time;durP1;ratioP1;P1;durP2;ratioP2;P2;SDS_P1;SDS_P2;PMS_P1;PMS_P2;Temp;Humidity;BMP_temperature;BMP_pressure;BME280_temperature;BME280_humidity;BME280_pressure;Samples;Min_cycle;Max_cycle;Signal;HPM_P1;HPM_P2
2021/06/11 06:28:19;;;;;;;5.60;2.00;;;;;;;;;;5128304;27;20421;-68
2021/06/11 06:30:45;;;;;;;5.80;1.75;;;;;;;;;;5130158;27;20066;-66
2021/06/11 06:33:10;;;;;;;3.38;1.80;;;;;;;;;;5126366;27;20027;-68
2021/06/11 06:35:37;;;;;;;4.97;1.85;;;;;;;;;;5120333;27;20016;-67
2021/06/11 06:38:02;;;;;;;1.75;1.58;;;;;;;;;;5122892;28;20015;-68
2021/06/11 06:41:00;;;;;;;5.85;2.05;;;;;;;;;;5114719;28;20391;-67
2021/06/11 06:43:25;;;;;;;2.05;1.60;;;;;;;;;;5101479;28;20016;-67
2021/06/11 06:45:51;;;;;;;2.60;1.63;;;;;;;;;;5104124;28;20088;-69
2021/06/11 06:48:16;;;;;;;1.73;1.52;;;;;;;;;;5109231;28;20016;-70
2021/06/11 06:50:42;;;;;;;5.70;2.10;;;;;;;;;;5108973;28;20383;-69
2021/06/11 06:53:08;;;;;;;3.42;2.00;;;;;;;;;;5111510;28;20038;-74
2021/06/11 06:55:33;;;;;;;2.67;1.60;;;;;;;;;;5114550;28;20016;-69
2021/06/11 06:57:59;;;;;;;5.43;2.13;;;;;;;;;;5110986;28;20024;-73
2021/06/11 07:00:24;;;;;;;3.85;1.67;;;;;;;;;;5110824;28;20015;-74
2021/06/11 07:02:50;;;;;;;2.22;2.00;;;;;;;;;;5119370;28;20181;-68
2021/06/11 07:05:15;;;;;;;3.83;1.90;;;;;;;;;;5120952;27;20024;-71
2021/06/11 07:07:41;;;;;;;4.55;1.90;;;;;;;;;;5122939;28;20028;-71
2021/06/11 07:10:07;;;;;;;2.30;1.95;;;;;;;;;;5111984;27;20034;-72
2021/06/11 07:12:32;;;;;;;2.78;2.00;;;;;;;;;;5110046;27;20012;-72
2021/06/11 07:14:58;;;;;;;5.32;2.33;;;;;;;;;;5096393;28;20031;-72
2021/06/11 07:17:24;;;;;;;2.45;2.05;;;;;;;;;;5097839;28;20016;-70
2021/06/11 07:19:49;;;;;;;3.08;2.20;;;;;;;;;;5095807;28;20384;-71
2021/06/11 07:22:14;;;;;;;3.95;2.00;;;;;;;;;;5128950;28;20075;-71
2021/06/11 07:24:40;;;;;;;2.90;1.88;;;;;;;;;;5145111;27;20125;-70
2021/06/11 07:27:05;;;;;;;7.25;2.05;;;;;;;;;;5153239;27;20027;-68
2021/06/11 07:29:31;;;;;;;3.65;1.90;;;;;;;;;;5141878;27;20035;-68
2021/06/11 07:31:56;;;;;;;7.75;2.05;;;;;;;;;;5125187;28;20011;-67
2021/06/11 07:34:22;;;;;;;4.13;1.80;;;;;;;;;;5099107;28;20388;-66
2021/06/11 07:36:47;;;;;;;3.78;2.00;;;;;;;;;;5098137;28;20153;-64
2021/06/11 07:39:13;;;;;;;4.68;2.30;;;;;;;;;;5088808;28;20499;-64
2021/06/11 07:41:38;;;;;;;3.33;1.88;;;;;;;;;;5085899;28;20139;-65
2021/06/11 07:44:04;;;;;;;2.85;2.13;;;;;;;;;;5089665;28;20032;-66
2021/06/11 07:46:36;;;;;;;3.08;2.10;;;;;;;;;;5091881;28;20467;-65
2021/06/11 07:49:01;;;;;;;2.95;2.13;;;;;;;;;;5082220;28;20020;-65
2021/06/11 07:51:27;;;;;;;6.75;2.45;;;;;;;;;;5092941;28;20058;-66
2021/06/11 07:53:53;;;;;;;5.78;2.45;;;;;;;;;;5088635;28;20012;-65
2021/06/11 07:56:18;;;;;;;2.85;1.90;;;;;;;;;;5091963;28;20033;-66
2021/06/11 07:58:44;;;;;;;3.53;2.20;;;;;;;;;;5091946;28;20438;-64
2021/06/11 08:01:09;;;;;;;3.20;2.40;;;;;;;;;;5102665;28;20094;-65
2021/06/11 08:03:34;;;;;;;3.92;2.30;;;;;;;;;;5094607;28;20142;-64
2021/06/11 08:06:00;;;;;;;2.83;2.10;;;;;;;;;;5084719;28;20032;-65
2021/06/11 08:08:25;;;;;;;5.05;2.20;;;;;;;;;;5084687;28;20431;-64
2021/06/11 08:10:51;;;;;;;4.47;2.30;;;;;;;;;;5079563;28;20563;-65
2021/06/11 08:13:16;;;;;;;3.40;2.05;;;;;;;;;;5091172;28;20035;-65
2021/06/11 08:15:43;;;;;;;6.13;2.38;;;;;;;;;;5106921;28;20019;-65
2021/06/11 08:18:08;;;;;;;3.10;2.38;;;;;;;;;;5094804;28;20039;-64
2021/06/11 08:20:33;;;;;;;5.38;2.65;;;;;;;;;;5090583;28;20028;-69
2021/06/11 08:22:59;;;;;;;2.17;1.98;;;;;;;;;;5077353;28;20470;-69
2021/06/11 08:25:24;;;;;;;11.77;2.30;;;;;;;;;;5079687;28;20055;-66
2021/06/11 08:27:50;;;;;;;2.72;2.35;;;;;;;;;;5100261;28;20044;-64
2021/06/11 08:30:16;;;;;;;6.80;2.38;;;;;;;;;;5082306;28;20081;-66
2021/06/11 08:32:43;;;;;;;2.72;2.28;;;;;;;;;;5106885;27;20091;-66
2021/06/11 08:35:08;;;;;;;6.55;2.45;;;;;;;;;;5091338;28;20106;-65
2021/06/11 08:37:34;;;;;;;6.20;2.47;;;;;;;;;;5100847;28;20118;-65
2021/06/11 08:40:02;;;;;;;5.43;2.63;;;;;;;;;;5109532;28;20019;-64
2021/06/11 08:42:31;;;;;;;8.90;3.38;;;;;;;;;;5095866;28;20019;-63
2021/06/11 08:45:01;;;;;;;4.28;2.20;;;;;;;;;;5106577;28;20118;-64
2021/06/11 08:47:27;;;;;;;3.40;2.17;;;;;;;;;;5104864;28;20084;-63
2021/06/11 08:49:52;;;;;;;3.60;2.22;;;;;;;;;;5096643;28;20024;-68
2021/06/11 08:52:18;;;;;;;3.40;2.15;;;;;;;;;;5103132;28;20032;-68
2021/06/11 08:54:43;;;;;;;4.65;2.42;;;;;;;;;;5098339;28;20022;-68
2021/06/11 08:57:11;;;;;;;2.40;2.15;;;;;;;;;;5091598;28;20067;-67
2021/06/11 08:59:37;;;;;;;5.70;2.93;;;;;;;;;;5086388;28;20017;-67
2021/06/11 09:02:03;;;;;;;4.05;2.53;;;;;;;;;;5082769;28;20272;-67
2021/06/11 09:04:47;;;;;;;4.07;2.45;;;;;;;;;;5082820;28;20615;-68
2021/06/11 09:07:19;;;;;;;4.22;2.28;;;;;;;;;;5094587;28;20019;-68
2021/06/11 09:09:48;;;;;;;4.90;2.53;;;;;;;;;;5098208;28;20479;-68
2021/06/11 09:12:33;;;;;;;6.60;2.50;;;;;;;;;;5095247;28;20768;-68
2021/06/11 09:14:59;;;;;;;3.95;2.47;;;;;;;;;;5083139;28;20021;-67
2021/06/11 09:17:44;;;;;;;4.35;2.60;;;;;;;;;;5097841;28;20107;-68
2021/06/11 09:20:12;;;;;;;2.92;2.63;;;;;;;;;;5090569;28;20035;-68
2021/06/11 09:22:39;;;;;;;2.70;2.50;;;;;;;;;;5081743;28;20035;-68
2021/06/11 09:25:24;;;;;;;4.93;2.80;;;;;;;;;;5087555;28;20264;-68
2021/06/11 09:27:51;;;;;;;7.88;2.80;;;;;;;;;;5092331;28;20055;-68
2021/06/11 09:30:16;;;;;;;4.63;3.00;;;;;;;;;;5092521;28;20019;-68
2021/06/11 09:32:41;;;;;;;7.38;2.78;;;;;;;;;;5079992;28;20069;-69
2021/06/11 09:35:08;;;;;;;5.72;2.60;;;;;;;;;;5089557;28;20020;-68
2021/06/11 09:37:37;;;;;;;5.00;2.53;;;;;;;;;;5081171;28;20050;-68
2021/06/11 09:40:05;;;;;;;4.88;2.83;;;;;;;;;;5078363;28;20033;-69
2021/06/11 09:42:34;;;;;;;2.70;2.15;;;;;;;;;;5083182;28;20078;-68
2021/06/11 09:45:01;;;;;;;5.25;2.78;;;;;;;;;;5094287;28;20036;-68
2021/06/11 09:47:34;;;;;;;4.32;2.70;;;;;;;;;;5089601;28;20484;-68
2021/06/11 09:50:05;;;;;;;11.50;3.33;;;;;;;;;;5083057;28;20110;-68
2021/06/11 09:52:35;;;;;;;5.95;2.65;;;;;;;;;;5082454;28;20031;-68
2021/06/11 09:55:02;;;;;;;6.13;2.70;;;;;;;;;;5072491;28;20009;-68
2021/06/11 09:57:33;;;;;;;5.77;2.40;;;;;;;;;;5082868;28;20499;-68
2021/06/11 09:59:58;;;;;;;5.80;2.55;;;;;;;;;;5083027;28;20032;-68
2021/06/11 10:02:24;;;;;;;4.95;2.33;;;;;;;;;;5081608;28;20571;-69
2021/06/11 10:04:49;;;;;;;2.70;2.13;;;;;;;;;;5073795;28;20115;-69
2021/06/11 10:07:15;;;;;;;4.60;2.50;;;;;;;;;;5082725;28;20027;-68
2021/06/11 10:09:41;;;;;;;5.25;2.45;;;;;;;;;;5079098;28;20114;-69
2021/06/11 10:12:07;;;;;;;6.38;2.20;;;;;;;;;;5079872;28;20021;-68
2021/06/11 10:14:32;;;;;;;3.47;2.70;;;;;;;;;;5077993;28;20020;-68
2021/06/11 10:16:58;;;;;;;3.33;2.53;;;;;;;;;;5079300;28;20051;-68
2021/06/11 10:19:24;;;;;;;6.38;2.40;;;;;;;;;;5077176;28;20099;-69
2021/06/11 10:21:57;;;;;;;7.97;2.72;;;;;;;;;;5083772;28;20376;-67
2021/06/11 10:24:24;;;;;;;4.45;2.90;;;;;;;;;;5079097;28;20028;-67
2021/06/11 10:26:50;;;;;;;5.82;3.17;;;;;;;;;;5078707;28;20043;-66
2021/06/11 10:29:16;;;;;;;7.57;2.83;;;;;;;;;;5081815;28;20115;-69
2021/06/11 10:31:42;;;;;;;5.15;3.17;;;;;;;;;;5089881;28;20013;-70
2021/06/11 10:34:07;;;;;;;4.75;2.95;;;;;;;;;;5092652;28;20031;-71
2021/06/11 10:36:36;;;;;;;4.00;2.58;;;;;;;;;;5102385;28;20027;-69
2021/06/11 10:39:21;;;;;;;32.85;4.47;;;;;;;;;;5085991;28;20106;-71
2021/06/11 10:41:56;;;;;;;11.30;3.38;;;;;;;;;;5081754;28;20035;-70
2021/06/11 10:44:40;;;;;;;7.68;2.95;;;;;;;;;;5085404;28;20468;-68
2021/06/11 10:47:24;;;;;;;5.07;2.20;;;;;;;;;;5082537;28;20012;-70
2021/06/11 10:50:01;;;;;;;4.90;2.05;;;;;;;;;;5078784;28;20051;-70
2021/06/11 10:52:34;;;;;;;6.90;2.35;;;;;;;;;;5089695;28;20012;-70
2021/06/11 10:55:19;;;;;;;6.95;2.47;;;;;;;;;;5077006;28;20059;-71
2021/06/11 10:58:05;;;;;;;5.07;1.80;;;;;;;;;;5074693;28;20071;-69
2021/06/11 11:00:33;;;;;;;3.33;1.55;;;;;;;;;;5082060;28;20031;-67
2021/06/11 11:02:59;;;;;;;5.45;2.08;;;;;;;;;;5086342;28;20098;-68
2021/06/11 11:05:26;;;;;;;1.55;1.45;;;;;;;;;;5074050;28;20019;-68
2021/06/11 11:07:51;;;;;;;3.97;2.33;;;;;;;;;;5090388;28;20022;-70
2021/06/11 11:10:32;;;;;;;6.30;2.10;;;;;;;;;;5089353;28;20021;-68
2021/06/11 11:12:58;;;;;;;3.55;1.90;;;;;;;;;;5091112;28;20086;-67
2021/06/11 11:15:32;;;;;;;14.50;2.67;;;;;;;;;;5099085;28;20023;-66
2021/06/11 11:17:59;;;;;;;2.60;1.98;;;;;;;;;;5112370;28;20092;-67
2021/06/11 11:20:29;;;;;;;6.57;2.20;;;;;;;;;;5093956;28;20024;-68
2021/06/11 11:22:56;;;;;;;5.00;2.10;;;;;;;;;;5097055;28;20349;-67
2021/06/11 11:25:22;;;;;;;3.15;2.38;;;;;;;;;;5095569;28;20016;-73
2021/06/11 11:27:47;;;;;;;5.28;2.13;;;;;;;;;;5094717;28;20051;-72
2021/06/11 11:30:13;;;;;;;7.32;2.75;;;;;;;;;;5096193;28;20108;-72
2021/06/11 11:32:39;;;;;;;5.78;2.13;;;;;;;;;;5096204;28;20016;-71
2021/06/11 11:35:05;;;;;;;2.10;2.00;;;;;;;;;;5091787;28;20017;-71
2021/06/11 11:37:30;;;;;;;6.38;2.40;;;;;;;;;;5082678;28;20061;-73
2021/06/11 11:39:55;;;;;;;2.33;1.70;;;;;;;;;;5082455;28;20016;-72
2021/06/11 11:42:21;;;;;;;3.10;2.22;;;;;;;;;;5087179;28;20046;-70
2021/06/11 11:44:46;;;;;;;4.97;1.70;;;;;;;;;;5087859;28;20056;-71
2021/06/11 11:47:12;;;;;;;2.38;2.17;;;;;;;;;;5077330;28;20029;-71
2021/06/11 11:49:37;;;;;;;3.17;2.40;;;;;;;;;;5090979;28;20023;-71
2021/06/11 11:52:02;;;;;;;3.95;1.73;;;;;;;;;;5087052;28;20031;-72
2021/06/11 11:54:29;;;;;;;3.00;1.85;;;;;;;;;;5084510;28;20020;-71
2021/06/11 11:56:54;;;;;;;3.92;2.00;;;;;;;;;;5091316;28;20032;-71
2021/06/11 11:59:19;;;;;;;5.05;2.00;;;;;;;;;;5088982;28;20072;-72
2021/06/11 12:01:45;;;;;;;5.43;2.22;;;;;;;;;;5086561;28;20016;-69
2021/06/11 12:04:13;;;;;;;2.20;1.98;;;;;;;;;;5085573;28;20044;-68
2021/06/11 12:06:39;;;;;;;3.37;2.23;;;;;;;;;;5083398;28;20393;-71
2021/06/11 12:09:05;;;;;;;8.05;2.55;;;;;;;;;;5083621;28;20024;-68
2021/06/11 12:11:30;;;;;;;9.05;2.22;;;;;;;;;;5084113;28;20039;-69
2021/06/11 12:13:55;;;;;;;5.15;2.70;;;;;;;;;;5087560;28;20083;-69
2021/06/11 12:16:21;;;;;;;5.88;2.30;;;;;;;;;;5099682;28;20015;-71
2021/06/11 12:18:46;;;;;;;2.40;2.05;;;;;;;;;;5090131;28;20096;-70
2021/06/11 12:21:12;;;;;;;4.13;2.22;;;;;;;;;;5090001;28;20384;-71
2021/06/11 12:23:37;;;;;;;7.43;2.78;;;;;;;;;;5091138;28;20020;-71
2021/06/11 12:26:03;;;;;;;2.60;2.10;;;;;;;;;;5085958;28;20016;-71
2021/06/11 12:28:28;;;;;;;4.60;2.47;;;;;;;;;;5079130;28;20026;-72
2021/06/11 12:30:54;;;;;;;4.70;2.05;;;;;;;;;;5088933;28;20020;-73
2021/06/11 12:33:19;;;;;;;3.28;2.13;;;;;;;;;;5090039;28;20024;-72
2021/06/11 12:35:45;;;;;;;3.95;2.10;;;;;;;;;;5090726;28;20465;-73
2021/06/11 12:38:10;;;;;;;4.00;2.45;;;;;;;;;;5093123;28;20032;-69
2021/06/11 12:40:38;;;;;;;3.53;2.20;;;;;;;;;;5087812;28;20022;-68
2021/06/11 12:43:05;;;;;;;4.55;1.83;;;;;;;;;;5090912;28;20114;-71
2021/06/11 12:45:31;;;;;;;10.75;2.35;;;;;;;;;;5087247;28;20058;-70
2021/06/11 12:47:56;;;;;;;3.42;2.00;;;;;;;;;;5099856;28;20015;-70
2021/06/11 12:50:21;;;;;;;3.70;2.10;;;;;;;;;;5087462;28;20503;-72
2021/06/11 12:52:48;;;;;;;8.07;2.53;;;;;;;;;;5086114;28;20009;-71
2021/06/11 12:55:14;;;;;;;9.30;2.10;;;;;;;;;;5077002;28;20025;-70
2021/06/11 12:57:39;;;;;;;2.83;2.50;;;;;;;;;;5080356;28;20081;-73
2021/06/11 13:00:05;;;;;;;3.55;2.00;;;;;;;;;;5076137;28;20015;-72
2021/06/11 13:02:31;;;;;;;2.42;1.83;;;;;;;;;;5065980;28;20020;-72
2021/06/11 13:04:56;;;;;;;3.15;2.20;;;;;;;;;;5080431;28;20024;-71
2021/06/11 13:07:22;;;;;;;3.70;2.30;;;;;;;;;;5082022;28;20020;-73
2021/06/11 13:09:48;;;;;;;1.88;1.77;;;;;;;;;;5078547;28;20032;-71
2021/06/11 13:12:13;;;;;;;3.00;1.85;;;;;;;;;;5082480;28;20350;-73
2021/06/11 13:14:40;;;;;;;6.38;2.30;;;;;;;;;;5087920;28;20122;-73
2021/06/11 13:17:06;;;;;;;5.28;2.20;;;;;;;;;;5085197;28;20035;-72
2021/06/11 13:19:31;;;;;;;3.58;1.88;;;;;;;;;;5073179;28;20012;-68
2021/06/11 13:21:56;;;;;;;3.42;2.33;;;;;;;;;;5073796;28;20016;-68
2021/06/11 13:24:22;;;;;;;5.05;2.00;;;;;;;;;;5088279;28;20088;-69
2021/06/11 13:26:48;;;;;;;2.50;2.20;;;;;;;;;;5097882;28;20131;-70
2021/06/11 13:29:33;;;;;;;4.97;2.53;;;;;;;;;;5105538;28;20020;-68
2021/06/11 13:32:00;;;;;;;4.53;2.42;;;;;;;;;;5088574;27;20086;-68
2021/06/11 13:34:26;;;;;;;2.72;2.08;;;;;;;;;;5073352;28;20542;-69
2021/06/11 13:37:01;;;;;;;4.90;2.00;;;;;;;;;;5073423;28;20017;-69
2021/06/11 13:39:27;;;;;;;3.03;2.30;;;;;;;;;;5073853;28;20024;-69
2021/06/11 13:41:52;;;;;;;3.15;2.25;;;;;;;;;;5072776;28;20063;-69
2021/06/11 13:44:17;;;;;;;2.92;2.22;;;;;;;;;;5073642;28;20052;-69
2021/06/11 13:46:43;;;;;;;2.72;2.20;;;;;;;;;;5073814;28;20019;-69
2021/06/11 13:49:08;;;;;;;4.90;2.20;;;;;;;;;;5073056;28;20025;-70
2021/06/11 13:51:34;;;;;;;6.07;2.50;;;;;;;;;;5072989;28;20020;-70
2021/06/11 13:53:59;;;;;;;2.85;2.38;;;;;;;;;;5072422;28;20025;-68
2021/06/11 13:56:25;;;;;;;3.83;1.90;;;;;;;;;;5072774;28;20016;-68
2021/06/11 13:58:50;;;;;;;3.83;2.08;;;;;;;;;;5072826;28;20473;-69
2021/06/11 14:01:15;;;;;;;1.92;1.80;;;;;;;;;;5072757;28;20029;-69
2021/06/11 14:03:41;;;;;;;3.05;2.30;;;;;;;;;;5071593;28;20491;-69
2021/06/11 14:06:06;;;;;;;3.83;2.40;;;;;;;;;;5072782;28;20008;-69
2021/06/11 14:08:32;;;;;;;4.40;1.80;;;;;;;;;;5072408;28;20017;-69
2021/06/11 14:10:58;;;;;;;2.22;1.80;;;;;;;;;;5072726;28;20017;-68
2021/06/11 15:22:33;;;;;;;4.97;3.10;;;;;;;;;;3739427;22;21074;-68
2021/06/11 15:25:01;;;;;;;2.60;2.03;;;;;;;;;;5055045;28;20063;-68
2021/06/11 15:27:29;;;;;;;2.97;2.10;;;;;;;;;;5055485;28;20009;-68
2021/06/11 15:29:57;;;;;;;2.30;2.10;;;;;;;;;;5055099;28;20021;-68
2021/06/11 15:32:24;;;;;;;3.25;2.17;;;;;;;;;;5055220;28;20039;-68
2021/06/11 15:34:52;;;;;;;2.15;1.92;;;;;;;;;;5055525;28;20021;-68
2021/06/11 15:37:20;;;;;;;3.15;2.20;;;;;;;;;;5055080;28;20035;-68
2021/06/11 15:39:47;;;;;;;3.28;2.28;;;;;;;;;;5055129;28;20044;-69
2021/06/11 15:42:15;;;;;;;2.20;2.00;;;;;;;;;;5054388;28;20028;-68
2021/06/11 15:44:43;;;;;;;2.92;1.92;;;;;;;;;;5054991;28;20025;-68
2021/06/11 15:47:10;;;;;;;1.88;1.77;;;;;;;;;;5054772;28;20389;-68
2021/06/11 15:49:39;;;;;;;2.53;2.20;;;;;;;;;;5055166;28;20021;-69
2021/06/11 15:52:08;;;;;;;2.60;2.08;;;;;;;;;;5054603;28;20021;-69
2021/06/11 15:54:36;;;;;;;4.80;2.08;;;;;;;;;;5055068;28;20405;-68
2021/06/11 15:57:04;;;;;;;2.50;1.95;;;;;;;;;;5054722;28;20025;-68
2021/06/11 15:59:32;;;;;;;2.72;1.70;;;;;;;;;;5054207;28;20051;-68
2021/06/11 16:02:00;;;;;;;2.10;1.80;;;;;;;;;;5054725;28;20032;-68
2021/06/11 16:04:27;;;;;;;1.80;1.70;;;;;;;;;;5054804;28;20020;-68
2021/06/11 16:06:57;;;;;;;2.38;1.70;;;;;;;;;;5054820;28;20051;-68
2021/06/11 16:09:25;;;;;;;4.95;1.73;;;;;;;;;;5054780;28;20032;-68
2021/06/11 16:11:53;;;;;;;2.13;1.90;;;;;;;;;;5053387;28;20063;-68
2021/06/11 16:14:21;;;;;;;2.65;1.80;;;;;;;;;;5054433;28;20024;-68
2021/06/11 16:16:49;;;;;;;3.20;1.83;;;;;;;;;;5054549;28;20021;-68
2021/06/11 16:19:16;;;;;;;5.10;1.58;;;;;;;;;;5054363;28;20025;-68
2021/06/11 16:21:45;;;;;;;2.00;1.60;;;;;;;;;;5054870;28;20046;-68
2021/06/11 16:24:13;;;;;;;1.40;1.30;;;;;;;;;;5054096;28;20056;-68
2021/06/11 16:26:41;;;;;;;2.55;1.50;;;;;;;;;;5054198;28;20047;-68
2021/06/11 16:29:09;;;;;;;1.65;1.40;;;;;;;;;;5054380;28;20542;-68
2021/06/11 16:31:36;;;;;;;1.85;1.52;;;;;;;;;;5054641;28;20382;-68
2021/06/11 16:34:04;;;;;;;2.63;1.70;;;;;;;;;;5054095;28;20101;-68
2021/06/11 16:36:33;;;;;;;4.33;1.50;;;;;;;;;;5054111;28;20021;-68
2021/06/11 16:39:02;;;;;;;2.30;1.80;;;;;;;;;;5053846;28;20032;-68
2021/06/11 16:41:30;;;;;;;1.60;1.50;;;;;;;;;;5053952;28;20028;-68
2021/06/11 16:43:58;;;;;;;6.45;1.60;;;;;;;;;;5053312;28;20051;-68
2021/06/11 16:46:26;;;;;;;1.83;1.40;;;;;;;;;;5054021;28;20021;-69
2021/06/11 16:48:54;;;;;;;4.43;1.70;;;;;;;;;;5054062;28;20427;-69
2021/06/11 16:51:22;;;;;;;3.08;1.70;;;;;;;;;;5053833;28;20455;-69
2021/06/11 16:53:49;;;;;;;2.45;1.80;;;;;;;;;;5053638;28;20017;-68
2021/06/11 16:56:17;;;;;;;1.98;1.70;;;;;;;;;;5053581;28;20024;-68
2021/06/11 16:58:45;;;;;;;2.35;1.92;;;;;;;;;;5053964;28;20031;-68
2021/06/11 17:01:13;;;;;;;2.97;1.83;;;;;;;;;;5053554;28;20036;-68
2021/06/11 17:03:40;;;;;;;1.70;1.60;;;;;;;;;;5053879;28;20013;-68
2021/06/11 17:06:08;;;;;;;2.03;1.85;;;;;;;;;;5053310;28;20488;-68
2021/06/11 17:08:39;;;;;;;3.97;1.73;;;;;;;;;;5053829;28;20079;-68
2021/06/11 17:11:07;;;;;;;2.65;2.00;;;;;;;;;;5052847;28;20090;-69
2021/06/11 17:23:53;;;;;;;2.05;1.85;;;;;;;;;;5011627;28;20045;-69
2021/06/11 17:26:21;;;;;;;3.97;1.90;;;;;;;;;;5013397;28;20029;-69
2021/06/11 17:28:48;;;;;;;2.03;1.73;;;;;;;;;;5013609;28;20022;-69
2021/06/11 17:31:18;;;;;;;7.22;2.10;;;;;;;;;;5013196;28;20057;-68
2021/06/11 17:33:46;;;;;;;1.92;1.70;;;;;;;;;;5013288;28;20026;-68
2021/06/11 17:36:24;;;;;;;2.97;1.90;;;;;;;;;;5013353;28;20026;-69
2021/06/11 17:38:53;;;;;;;2.00;1.80;;;;;;;;;;5013412;28;20072;-68
2021/06/11 17:41:23;;;;;;;1.85;1.75;;;;;;;;;;5013290;28;20064;-69
2021/06/11 17:43:52;;;;;;;2.05;1.83;;;;;;;;;;5012374;28;20029;-69
2021/06/11 17:46:20;;;;;;;2.47;2.00;;;;;;;;;;5013130;28;20028;-69
2021/06/11 17:48:49;;;;;;;2.78;1.80;;;;;;;;;;5013332;28;20025;-69
2021/06/11 17:51:16;;;;;;;3.10;1.80;;;;;;;;;;5013087;28;20398;-69
2021/06/11 17:53:44;;;;;;;4.85;2.15;;;;;;;;;;5013251;28;20022;-69
2021/06/11 17:56:16;;;;;;;3.53;1.92;;;;;;;;;;5013064;28;20090;-69
2021/06/11 17:58:45;;;;;;;5.07;1.98;;;;;;;;;;5012975;28;20038;-69
2021/06/11 18:01:15;;;;;;;2.67;2.20;;;;;;;;;;5012906;28;20013;-69
2021/06/11 18:03:43;;;;;;;4.82;1.90;;;;;;;;;;5013177;28;20026;-70
2021/06/11 18:06:13;;;;;;;2.22;1.83;;;;;;;;;;5012846;28;20030;-70
2021/06/11 18:08:44;;;;;;;2.53;1.88;;;;;;;;;;5013065;28;20022;-70
2021/06/11 18:11:19;;;;;;;2.35;1.85;;;;;;;;;;5012732;28;20053;-70
2021/06/11 18:27:06;;;;;;;3.83;2.20;;;;;;;;;;4143190;22;20505;-70
2021/06/11 18:29:51;;;;;;;4.45;2.30;;;;;;;;;;5087884;28;20024;-70
2021/06/11 18:32:33;;;;;;;3.05;2.05;;;;;;;;;;5098138;28;20069;-70
2021/06/11 18:35:04;;;;;;;2.55;2.30;;;;;;;;;;5097184;28;20090;-70
2021/06/11 18:37:33;;;;;;;3.72;2.40;;;;;;;;;;5080629;28;20021;-69
2021/06/11 18:40:03;;;;;;;3.72;2.55;;;;;;;;;;5080604;28;20020;-70
2021/06/11 18:42:31;;;;;;;6.55;2.97;;;;;;;;;;5072101;28;20070;-70
2021/06/11 18:44:59;;;;;;;7.38;2.67;;;;;;;;;;5072229;28;20031;-70
2021/06/11 18:47:29;;;;;;;12.45;3.25;;;;;;;;;;5072047;28;20023;-70
2021/06/11 18:49:58;;;;;;;8.00;3.55;;;;;;;;;;5072052;28;20111;-70
2021/06/11 18:52:27;;;;;;;70.93;7.47;;;;;;;;;;5072081;28;20020;-70
2021/06/11 18:54:54;;;;;;;;;;;;;;;;;;5072466;28;20020;-70
2021/06/11 18:57:22;;;;;;;18.92;4.25;;;;;;;;;;5071859;28;19919;-70
2021/06/11 19:00:01;;;;;;;19.95;5.05;;;;;;;;;;5071923;28;20016;-70
2021/06/11 19:02:29;;;;;;;13.95;5.35;;;;;;;;;;5072233;28;20523;-70
2021/06/11 19:04:57;;;;;;;14.80;5.43;;;;;;;;;;5054039;28;20047;-70
2021/06/11 19:07:24;;;;;;;13.48;6.70;;;;;;;;;;5071703;28;20021;-70
2021/06/11 19:10:10;;;;;;;18.02;7.88;;;;;;;;;;5072195;28;20032;-70
2021/06/11 19:12:40;;;;;;;13.15;7.07;;;;;;;;;;5178824;22;20072;-69
2021/06/11 19:15:14;;;;;;;14.45;7.82;;;;;;;;;;5072044;28;20021;-70
2021/06/11 19:17:55;;;;;;;15.45;7.15;;;;;;;;;;5071944;28;20024;-70
2021/06/11 19:20:33;;;;;;;15.30;7.45;;;;;;;;;;5072102;28;20021;-70
2021/06/11 19:23:02;;;;;;;19.95;8.20;;;;;;;;;;5056258;28;20396;-69
2021/06/11 19:25:30;;;;;;;14.88;7.07;;;;;;;;;;5051821;28;20017;-70
2021/06/11 19:27:58;;;;;;;16.80;6.65;;;;;;;;;;5051490;28;20083;-70
2021/06/11 19:30:29;;;;;;;17.95;7.45;;;;;;;;;;5051762;28;20020;-69
2021/06/11 19:33:04;;;;;;;13.15;5.40;;;;;;;;;;5051746;28;20068;-70
2021/06/11 19:35:45;;;;;;;9.20;5.43;;;;;;;;;;5054284;28;20575;-70
2021/06/11 19:38:18;;;;;;;14.00;6.25;;;;;;;;;;5055205;28;20124;-70
2021/06/11 19:40:46;;;;;;;9.88;5.30;;;;;;;;;;5037521;28;20481;-70
2021/06/11 19:43:27;;;;;;;13.63;5.43;;;;;;;;;;5054660;28;20017;-70
2021/06/11 19:45:57;;;;;;;14.23;6.25;;;;;;;;;;5055170;28;20028;-70
2021/06/11 19:48:24;;;;;;;11.90;6.32;;;;;;;;;;5055283;28;20062;-70
2021/06/11 19:50:54;;;;;;;15.60;6.80;;;;;;;;;;5055332;28;20021;-70
2021/06/11 19:53:28;;;;;;;20.55;6.53;;;;;;;;;;5054949;28;20017;-70
2021/06/11 19:56:15;;;;;;;12.13;6.15;;;;;;;;;;5054810;28;20013;-70
2021/06/11 19:58:44;;;;;;;15.43;6.18;;;;;;;;;;5055118;28;20056;-70
2021/06/11 20:01:14;;;;;;;10.18;5.78;;;;;;;;;;5054979;28;20023;-70
2021/06/11 20:03:44;;;;;;;13.55;6.53;;;;;;;;;;5055068;28;20047;-70
2021/06/11 20:06:12;;;;;;;12.68;7.07;;;;;;;;;;5054737;28;20049;-70
2021/06/11 20:08:41;;;;;;;9.95;5.78;;;;;;;;;;5054930;28;20013;-70
2021/06/11 20:11:09;;;;;;;10.07;5.73;;;;;;;;;;5054818;28;20108;-69
2021/06/11 20:19:16;;;;;;;10.80;5.13;;;;;;;;;;4386703;26;20045;-70
2021/06/11 20:21:44;;;;;;;12.30;5.15;;;;;;;;;;5054616;28;20033;-70
2021/06/11 20:24:21;;;;;;;9.38;5.28;;;;;;;;;;5054291;28;20386;-70
2021/06/11 20:26:55;;;;;;;8.80;5.05;;;;;;;;;;5054439;28;20025;-70
2021/06/11 20:29:25;;;;;;;10.13;4.85;;;;;;;;;;5054428;28;20025;-70
2021/06/11 20:31:51;;;;;;;;;;;;;;;;;;5054714;28;20428;-70
2021/06/11 20:34:19;;;;;;;7.05;4.90;;;;;;;;;;5054094;28;19911;-70
2021/06/11 20:36:47;;;;;;;7.05;4.85;;;;;;;;;;5054392;28;20099;-70
2021/06/11 20:39:15;;;;;;;7.93;4.15;;;;;;;;;;5054256;28;20083;-70
2021/06/11 20:41:43;;;;;;;7.35;4.70;;;;;;;;;;5053444;28;20071;-70
2021/06/11 20:44:11;;;;;;;4.78;4.22;;;;;;;;;;5054239;28;20078;-70
2021/06/11 20:46:38;;;;;;;9.90;4.85;;;;;;;;;;5053951;28;20086;-70
2021/06/11 20:49:06;;;;;;;10.77;4.90;;;;;;;;;;5054066;28;20016;-70
2021/06/11 20:51:35;;;;;;;9.27;4.78;;;;;;;;;;5054049;28;20017;-70
2021/06/11 20:54:03;;;;;;;9.53;4.27;;;;;;;;;;5053526;28;20466;-69
2021/06/11 20:56:31;;;;;;;7.97;5.20;;;;;;;;;;5054103;28;20285;-70
2021/06/11 20:58:59;;;;;;;5.88;4.45;;;;;;;;;;5053847;28;20158;-69
2021/06/11 21:01:27;;;;;;;7.72;4.95;;;;;;;;;;5053627;28;20079;-70
2021/06/11 21:03:54;;;;;;;11.52;5.30;;;;;;;;;;5035550;28;20382;-70
2021/06/11 21:06:22;;;;;;;11.52;5.32;;;;;;;;;;5053604;28;20024;-70
2021/06/11 21:08:50;;;;;;;14.93;5.57;;;;;;;;;;5053595;28;20493;-70
2021/06/11 21:11:18;;;;;;;10.70;6.28;;;;;;;;;;5053635;28;20155;-69
2021/06/11 21:13:45;;;;;;;12.35;6.30;;;;;;;;;;5052666;28;20016;-69
2021/06/11 21:16:13;;;;;;;8.77;5.60;;;;;;;;;;5053513;28;20084;-70
2021/06/11 21:18:41;;;;;;;12.68;6.30;;;;;;;;;;5053300;28;20138;-70
2021/06/11 21:21:11;;;;;;;12.95;6.43;;;;;;;;;;5053404;28;20478;-70
2021/06/11 21:23:38;;;;;;;8.73;6.03;;;;;;;;;;5053207;28;20025;-70
2021/06/11 21:26:06;;;;;;;12.23;5.63;;;;;;;;;;5053193;28;20055;-70
2021/06/11 21:28:35;;;;;;;13.52;6.05;;;;;;;;;;5053306;28;20416;-70
2021/06/11 21:31:03;;;;;;;10.27;7.15;;;;;;;;;;5053159;28;20025;-70
2021/06/11 21:33:32;;;;;;;12.97;6.73;;;;;;;;;;5053237;28;20024;-70
2021/06/11 21:36:00;;;;;;;10.23;6.43;;;;;;;;;;5034974;28;20025;-70
2021/06/11 21:38:28;;;;;;;9.43;5.82;;;;;;;;;;5053111;28;20033;-69
2021/06/11 21:40:55;;;;;;;10.32;5.78;;;;;;;;;;5035119;28;20021;-69
2021/06/11 21:43:23;;;;;;;13.23;5.95;;;;;;;;;;5052401;28;20162;-70
2021/06/11 21:45:52;;;;;;;8.57;6.03;;;;;;;;;;5052902;28;20013;-70
2021/06/11 21:48:19;;;;;;;8.98;5.68;;;;;;;;;;5034867;28;20108;-70
2021/06/11 21:50:47;;;;;;;12.90;6.43;;;;;;;;;;5052770;28;20020;-70
2021/06/11 21:53:14;;;;;;;16.77;7.07;;;;;;;;;;5052730;28;20033;-70
2021/06/11 21:55:45;;;;;;;15.65;5.75;;;;;;;;;;5052906;28;20120;-70
2021/06/11 21:58:13;;;;;;;9.13;5.80;;;;;;;;;;5052272;28;20028;-70
2021/06/11 22:00:41;;;;;;;7.85;5.90;;;;;;;;;;5070733;28;20025;-70
2021/06/11 22:03:09;;;;;;;8.38;5.82;;;;;;;;;;5078672;28;20028;-70
2021/06/11 22:05:37;;;;;;;11.15;6.40;;;;;;;;;;5077732;28;20016;-70
2021/06/11 22:08:04;;;;;;;8.93;5.57;;;;;;;;;;5036319;28;20017;-70
2021/06/11 22:10:32;;;;;;;7.78;6.15;;;;;;;;;;5054073;28;20492;-70
2021/06/11 22:13:00;;;;;;;10.23;6.20;;;;;;;;;;5051917;28;20013;-70
2021/06/11 22:15:29;;;;;;;7.90;5.47;;;;;;;;;;5034667;28;20481;-70
2021/06/11 22:17:57;;;;;;;10.90;5.75;;;;;;;;;;5051901;28;20041;-70
2021/06/11 22:20:25;;;;;;;7.43;5.72;;;;;;;;;;5052445;28;20017;-70
2021/06/11 22:22:52;;;;;;;11.38;6.70;;;;;;;;;;5052636;28;20079;-70
2021/06/11 22:25:20;;;;;;;17.17;6.90;;;;;;;;;;5052358;28;20025;-70
2021/06/11 22:27:48;;;;;;;11.55;6.72;;;;;;;;;;5052193;28;20132;-70
2021/06/11 22:30:17;;;;;;;8.88;6.80;;;;;;;;;;5052138;28;20523;-69
2021/06/11 22:32:45;;;;;;;10.20;6.88;;;;;;;;;;5052511;28;20100;-70
2021/06/11 22:35:13;;;;;;;8.82;6.40;;;;;;;;;;5052154;28;20031;-70
2021/06/11 22:37:40;;;;;;;10.85;6.38;;;;;;;;;;5052329;28;20032;-70
2021/06/11 22:40:09;;;;;;;9.93;6.72;;;;;;;;;;5052175;28;20119;-70
2021/06/11 22:42:37;;;;;;;8.25;6.63;;;;;;;;;;5051706;28;20021;-70
2021/06/11 22:45:05;;;;;;;9.30;6.20;;;;;;;;;;5052182;28;20474;-70
2021/06/11 22:47:34;;;;;;;8.95;6.18;;;;;;;;;;5052138;28;20013;-70
2021/06/11 22:50:05;;;;;;;10.57;6.82;;;;;;;;;;5052098;28;20072;-70
2021/06/11 22:52:32;;;;;;;8.68;6.20;;;;;;;;;;5052548;28;20013;-70